Portada
METAR-TAF:

METAR-TAF

Aeroports :

Odessa, Ucraïna

latitud: 46-26N, longitud: 030-46E, altitud: 42 m

Observació

L'informe es va fer fa 34 minuts, a les 00:00 UTC
Vent 4 kt del Nord
Temperatura 22°C
Humitat 50%
Pressió 1013 hPa
Visibilitat 10 km o més
sense núvols per sota de 1500 mi sense presència de cumulonimbus.

METAR: UKOO 160000Z 01002MPS CAVOK 22/11 Q1013 R16/090060 NOSIG

Hora: 03:34 (00:34 UTC)

Pronòstic

L'informe es va fer fa 1 hora i 31 minuts, a les 23:03 UTC
Pronòstic vàlid del 16 a les 00 UTC al 16 a les 24 UTC
Vent 6 kt del Nord-Est
Visibilitat: 6000 m
Núvols disperses a una alçada de 2000 ft
Evolucionant progressivament
l' 16 a les 10 UTC al 16 a les 11 UTC
Vent 6 kt del Sud-Est

TAF: UKOO 152303Z 1600/1624 04003MPS 6000 SCT020 TX33/1612Z TN19/1602Z BECMG 1610/1611 14003MPS

Observacions i pronòstics meteorològics de més de 4000 aeroports (METAR i TAF).

Les estacions disponibles són els punts grocs i vermells al mapa.

Posi el ratolí al punt desitjat per veure el nom de l'estació.

Feu clic per veure les observacions i els pronòstics meteorològics.

Per canviar el mapa: feu clic els botons verds amb una creu de color negre per apropar; al botó verd amb un guió per allunyar la imatge; o en les fletxes verdes per a mapes adjacents.


METAR-TAF: